Minerva Tychi — SVCD7 — position and weather

sailwx.info

Track history (hours):
 
Tides and Currents Weather Stations Pressure Air Temp Water Temp Dewpoint Dewpoint Depression Visibility Wind Speed Wind Dir Waves Ship Positions

Minerva Tychi

Last reported at 2018-Jul-17 04:43 UTC. Time now 2018-Jul-20 23:52 UTC.
Position N 47°32' W 006°35'.

Length 184 m; draft 10.5 m.

Type: Tanker. MMSI: 241372000.

Date/timePositionNaut miles runAvg speedWind from/ knotsBaromVisibWave heightAir tempDewpointWater temp
2018-Jul-17 04:43N 47°32' W 006°35'512.2
2018-Jul-17 04:19N 47°37' W 006°33'16211.5
2018-Jul-16 14:12N 49°39' W 003°51'314.5
2018-Jul-16 14:00N 49°41' W 003°48'714.2
2018-Jul-16 13:29N 49°44' W 003°37'714.0
2018-Jul-16 12:59N 49°47' W 003°28'613.3
2018-Jul-16 12:31N 49°51' W 003°19'612.8
2018-Jul-16 12:00N 49°54' W 003°11'612.0
2018-Jul-16 11:30N 49°57' W 003°03'611.3
2018-Jul-16 11:00N 49°59' W 002°55'511.0
2018-Jul-16 10:31N 50°01' W 002°47'510.6
2018-Jul-16 10:01N 50°02' W 002°39'510.4
2018-Jul-16 09:31N 50°04' W 002°31'510.3
2018-Jul-16 09:01N 50°05' W 002°23'510.4
2018-Jul-16 08:29N 50°07' W 002°15'511.1
2018-Jul-16 08:00N 50°09' W 002°07'611.9
2018-Jul-16 07:30N 50°10' W 001°58'1013.2
2018-Jul-16 06:44N 50°13' W 001°43'414.2
2018-Jul-16 06:28N 50°14' W 001°37'714.9
2018-Jul-16 06:00N 50°16' W 001°27'815.7
2018-Jul-16 05:30N 50°19' W 001°15'816.6
2018-Jul-16 05:00N 50°20' W 001°03'816.9
2018-Jul-16 04:30N 50°22' W 000°50'816.0
2018-Jul-16 04:00N 50°25' W 000°38'815.5
2018-Jul-16 03:30N 50°27' W 000°26'714.8
2018-Jul-16 03:00N 50°29' W 000°15'714.2
2018-Jul-16 02:30N 50°31' W 000°04'713.5
2018-Jul-16 02:00N 50°33' E 000°06'612.9
2018-Jul-16 01:30N 50°35' E 000°16'612.4
2018-Jul-16 01:01N 50°36' E 000°25'612.0
2018-Jul-16 00:31N 50°38' E 000°34'611.4
2018-Jul-16 00:01N 50°41' E 000°42'611.4
2018-Jul-15 23:31N 50°44' E 000°49'611.7
2018-Jul-15 23:00N 50°48' E 000°56'612.6
2018-Jul-15 22:30N 50°52' E 001°04'713.4
2018-Jul-15 22:01N 50°56' E 001°12'714.8
2018-Jul-15 21:30N 51°01' E 001°21'816.0
2018-Jul-15 21:01N 51°06' E 001°31'816.1
2018-Jul-15 20:31N 51°11' E 001°41'714.8
2018-Jul-15 20:01N 51°17' E 001°48'713.9
2018-Jul-15 19:30N 51°23' E 001°53'612.4
2018-Jul-15 19:00N 51°28' E 001°58'612.5
2018-Jul-15 18:30N 51°33' E 002°05'612.1
2018-Jul-15 18:00N 51°37' E 002°11'611.9
2018-Jul-15 17:30N 51°42' E 002°18'611.6
2018-Jul-15 17:00N 51°46' E 002°24'611.3
2018-Jul-15 16:30N 51°50' E 002°30'511.0
2018-Jul-15 16:00N 51°55' E 002°35'611.1
2018-Jul-15 15:30N 52°00' E 002°37'611.1
2018-Jul-15 15:00N 52°06' E 002°38'611.4
2018-Jul-15 14:30N 52°12' E 002°38'612.1
2018-Jul-15 14:00N 52°17' E 002°42'612.8
2018-Jul-15 13:30N 52°23' E 002°47'713.4
2018-Jul-15 13:00N 52°29' E 002°52'713.9
2018-Jul-15 12:30N 52°35' E 002°58'714.1
2018-Jul-15 12:00N 52°41' E 003°03'714.2
2018-Jul-15 11:30N 52°47' E 003°09'714.3
2018-Jul-15 11:00N 52°54' E 003°14'714.2
2018-Jul-15 10:30N 53°00' E 003°18'714.3
2018-Jul-15 10:00N 53°07' E 003°22'714.2
2018-Jul-15 09:31N 53°14' E 003°26'713.8
2018-Jul-15 09:00N 53°20' E 003°29'713.3
2018-Jul-15 08:30N 53°27' E 003°32'612.9
2018-Jul-15 08:00N 53°33' E 003°36'612.6
2018-Jul-15 07:30N 53°39' E 003°39'611.9
2018-Jul-15 07:00N 53°44' E 003°43'612.3
2018-Jul-15 06:30N 53°48' E 003°51'612.3
2018-Jul-15 06:00N 53°52' E 003°60'612.4
2018-Jul-15 05:30N 53°55' E 004°08'612.7
2018-Jul-15 05:00N 53°59' E 004°17'612.6
2018-Jul-15 04:30N 54°04' E 004°23'813.1
2018-Jul-15 03:53N 54°11' E 004°30'513.3
2018-Jul-15 03:29N 54°16' E 004°35'713.3
2018-Jul-15 03:00N 54°22' E 004°40'713.4
2018-Jul-15 02:30N 54°27' E 004°45'713.2
2018-Jul-15 01:57N 54°34' E 004°51'813.2
2018-Jul-15 01:21N 54°40' E 004°59'513.0
2018-Jul-15 01:00N 54°45' E 005°02'2812.9
2018-Jul-14 22:52N 55°09' E 005°26'1112.8
2018-Jul-14 21:59N 55°19' E 005°35'712.9
2018-Jul-14 21:29N 55°24' E 005°41'712.8
2018-Jul-14 20:57N 55°30' E 005°47'14512.2
2018-Jul-14 09:04N 57°26' E 008°25'711.3
2018-Jul-14 08:27N 57°30' E 008°35'511.4
2018-Jul-14 08:00N 57°32' E 008°44'611.5
2018-Jul-14 07:28N 57°36' E 008°53'711.5
2018-Jul-14 06:54N 57°39' E 009°03'511.3
2018-Jul-14 06:29N 57°41' E 009°11'611.5
2018-Jul-14 05:59N 57°44' E 009°21'611.6
2018-Jul-14 05:30N 57°46' E 009°31'611.9
2018-Jul-14 05:00N 57°48' E 009°41'611.3
2018-Jul-14 04:30N 57°49' E 009°52'611.0
2018-Jul-14 04:00N 57°49' E 010°02'510.6
2018-Jul-14 03:30N 57°48' E 010°12'510.5
2018-Jul-14 03:00N 57°49' E 010°22'510.4
2018-Jul-14 02:30N 57°49' E 010°32'510.0
2018-Jul-14 02:00N 57°49' E 010°41'510.3
2018-Jul-14 01:30N 57°47' E 010°50'5 9.5
2018-Jul-14 01:00N 57°44' E 010°56'612.4
2018-Jul-14 00:30N 57°40' E 011°04'612.9
2018-Jul-14 00:00N 57°35' E 011°13'713.3
2018-Jul-13 23:30N 57°30' E 011°22'612.7
2018-Jul-13 23:00N 57°25' E 011°27'612.9
2018-Jul-13 22:30N 57°19' E 011°32'612.8
2018-Jul-13 22:00N 57°13' E 011°36'612.8
2018-Jul-13 21:30N 57°07' E 011°40'612.6
2018-Jul-13 21:01N 57°01' E 011°44'612.6
2018-Jul-13 20:31N 56°55' E 011°48'612.1
2018-Jul-13 20:00N 56°49' E 011°51'611.6
2018-Jul-13 19:29N 56°43' E 011°51'612.5
2018-Jul-13 19:00N 56°37' E 011°46'612.7
2018-Jul-13 18:31N 56°32' E 011°40'712.6
2018-Jul-13 17:59N 56°27' E 011°34'912.4
2018-Jul-13 17:18N 56°19' E 011°26'912.8
2018-Jul-13 16:34N 56°11' E 011°17'4612.0
2018-Jul-13 12:43N 55°26' E 010°58'312.3
2018-Jul-13 12:29N 55°24' E 011°01'612.3
2018-Jul-13 12:00N 55°18' E 011°03'612.0
2018-Jul-13 11:30N 55°12' E 011°05'612.0
2018-Jul-13 11:00N 55°07' E 010°60'713.2
2018-Jul-13 10:30N 55°00' E 010°59'713.4
2018-Jul-13 10:00N 54°55' E 010°52'713.8
2018-Jul-13 09:30N 54°48' E 010°50'713.1
2018-Jul-13 09:01N 54°42' E 010°47'612.1
2018-Jul-13 08:30N 54°38' E 010°55'612.1
2018-Jul-13 08:01N 54°36' E 011°05'612.5
2018-Jul-13 07:31N 54°34' E 011°15'713.0
2018-Jul-13 07:01N 54°32' E 011°25'612.5
2018-Jul-13 06:31N 54°29' E 011°35'612.4
2018-Jul-13 06:00N 54°27' E 011°45'612.2
2018-Jul-13 05:30N 54°25' E 011°55'612.4
2018-Jul-13 05:01N 54°26' E 012°06'611.4
2018-Jul-13 04:30N 54°30' E 012°13'612.1
2018-Jul-13 04:00N 54°36' E 012°16'4 8.2
2018-Jul-13 03:31N 54°39' E 012°21'4 7.5
2018-Jul-13 03:01N 54°41' E 012°26'510.3
2018-Jul-13 02:30N 54°44' E 012°34'612.9
2018-Jul-13 02:00N 54°48' E 012°43'712.7
2018-Jul-13 01:25N 54°50' E 012°55'512.8
2018-Jul-13 01:00N 54°52' E 013°04'613.0
2018-Jul-13 00:31N 54°54' E 013°14'913.1
2018-Jul-12 23:51N 54°57' E 013°28'512.7
2018-Jul-12 23:30N 54°59' E 013°35'1812.8
2018-Jul-12 22:05N 55°05' E 014°05'113.2
2018-Jul-12 22:00N 55°06' E 014°07'613.1
2018-Jul-12 21:31N 55°11' E 014°14'813.1
2018-Jul-12 20:53N 55°17' E 014°23'613.2
2018-Jul-12 20:27N 55°22' E 014°29'613.1
2018-Jul-12 20:00N 55°26' E 014°36'712.9
2018-Jul-12 19:30N 55°29' E 014°46'613.0
2018-Jul-12 19:01N 55°32' E 014°56'713.2
2018-Jul-12 18:30N 55°35' E 015°07'713.1
2018-Jul-12 18:00N 55°38' E 015°17'612.7
2018-Jul-12 17:31N 55°40' E 015°28'612.8
2018-Jul-12 17:01N 55°41' E 015°39'712.9
2018-Jul-12 16:30N 55°43' E 015°50'612.9
2018-Jul-12 16:01N 55°45' E 016°01'713.1
2018-Jul-12 15:31N 55°46' E 016°12'712.9
2018-Jul-12 15:00N 55°48' E 016°24'612.8
2018-Jul-12 14:31N 55°49' E 016°34'712.9
2018-Jul-12 14:00N 55°51' E 016°46'713.0
2018-Jul-12 13:30N 55°53' E 016°57'713.9
2018-Jul-12 12:58N 55°54' E 017°10'613.9
2018-Jul-12 12:31N 55°56' E 017°21'913.9
2018-Jul-12 11:53N 55°58' E 017°36'1412.9
2018-Jul-12 10:46N 56°05' E 017°58'413.1
2018-Jul-12 10:29N 56°07' E 018°04'2113.0
2018-Jul-12 08:53N 56°18' E 018°35'17813.0
2018-Jul-11 19:15N 58°53' E 021°18'313.3
2018-Jul-11 19:00N 58°56' E 021°22'613.3
2018-Jul-11 18:30N 59°01' E 021°28'713.2
2018-Jul-11 18:00N 59°07' E 021°35'612.8
2018-Jul-11 17:30N 59°12' E 021°44'813.0
2018-Jul-11 16:55N 59°16' E 021°56'813.0
2018-Jul-11 16:18N 59°21' E 022°08'1213.0
2018-Jul-11 15:24N 59°29' E 022°26'512.8
2018-Jul-11 15:00N 59°31' E 022°35'813.1
2018-Jul-11 14:23N 59°33' E 022°50'613.1
2018-Jul-11 13:58N 59°35' E 023°01'613.1
2018-Jul-11 13:30N 59°37' E 023°12'713.2
2018-Jul-11 13:01N 59°38' E 023°24'713.4
2018-Jul-11 12:30N 59°40' E 023°37'713.3
2018-Jul-11 12:00N 59°42' E 023°50'713.3
2018-Jul-11 11:30N 59°44' E 024°03'713.4
2018-Jul-11 11:00N 59°46' E 024°15'713.4
2018-Jul-11 10:30N 59°47' E 024°28'613.0
2018-Jul-11 10:00N 59°49' E 024°41'713.2
2018-Jul-11 09:30N 59°50' E 024°54'713.1
2018-Jul-11 09:00N 59°51' E 025°06'712.7
2018-Jul-11 08:25N 59°53' E 025°21'2412.8
2018-Jul-11 06:32N 59°54' E 026°09'012.9
2018-Jul-11 06:30N 59°54' E 026°10'713.7
2018-Jul-11 06:00N 59°53' E 026°23'612.2
2018-Jul-11 05:30N 59°50' E 026°33'814.2
2018-Jul-11 04:58N 59°45' E 026°45'611.9
2018-Jul-11 04:30N 59°42' E 026°54'713.9
2018-Jul-11 04:00N 59°38' E 027°06'611.8
2018-Jul-11 03:31N 59°35' E 027°15'712.6
2018-Jul-11 02:58N 59°32' E 027°27'612.9
2018-Jul-11 02:30N 59°30' E 027°38'5 8.8
2018-Jul-11 01:59N 59°26' E 027°44'1 0.0
2018-Jul-09 23:18N 59°25' E 027°44'0 0.0
2018-Jul-09 23:01N 59°25' E 027°44'0 1.0
2018-Jul-09 22:31N 59°26' E 027°44'3 5.2
2018-Jul-09 22:00N 59°28' E 027°41'2 3.0
2018-Jul-09 21:29N 59°30' E 027°42'0 0.0
2018-Jul-09 20:57N 59°30' E 027°42'0 0.0
2018-Jul-09 20:27N 59°30' E 027°42'0 0.0
2018-Jul-09 19:57N 59°30' E 027°42'0 0.0
2018-Jul-09 19:30N 59°30' E 027°42'0 0.0
2018-Jul-09 19:00N 59°30' E 027°42'0 0.0
2018-Jul-09 18:30N 59°30' E 027°42'0 0.0
2018-Jul-09 18:00N 59°30' E 027°42'0 0.0
2018-Jul-09 17:30N 59°30' E 027°42'0 0.0
2018-Jul-09 17:00N 59°30' E 027°42'0 0.0
2018-Jul-09 16:30N 59°30' E 027°42'0 0.0
2018-Jul-09 16:00N 59°30' E 027°42'0 0.0
2018-Jul-09 15:30N 59°30' E 027°42'0 0.0
2018-Jul-09 15:00N 59°30' E 027°42'0 0.0
2018-Jul-09 14:30N 59°30' E 027°42'0 0.0
2018-Jul-09 14:00N 59°30' E 027°42'0 0.0
2018-Jul-09 13:30N 59°30' E 027°42'0 0.0
2018-Jul-09 12:51N 59°30' E 027°42'0 0.0
2018-Jul-09 12:18N 59°30' E 027°42'0 0.0
2018-Jul-09 11:51N 59°30' E 027°42'0 0.0
2018-Jul-09 11:21N 59°30' E 027°42'0 0.0
2018-Jul-09 10:59N 59°30' E 027°42'0 0.0
2018-Jul-09 10:24N 59°30' E 027°42'0 0.0
2018-Jul-09 09:57N 59°30' E 027°42'0 0.0
2018-Jul-09 09:24N 59°30' E 027°42'0 0.0
2018-Jul-09 08:54N 59°30' E 027°42'0 0.1
2018-Jul-09 08:21N 59°30' E 027°42'0 0.7
2018-Jul-09 08:00N 59°30' E 027°42'4 7.7
2018-Jul-09 07:30N 59°31' E 027°35'4 9.0
2018-Jul-09 07:00N 59°32' E 027°26'5 9.6
2018-Jul-09 06:30N 59°34' E 027°17'713.7
2018-Jul-09 05:58N 59°38' E 027°05'714.7
2018-Jul-09 05:30N 59°42' E 026°54'612.9
2018-Jul-09 05:00N 59°46' E 026°44'714.9
2018-Jul-09 04:30N 59°50' E 026°31'713.0
2018-Jul-09 03:58N 59°53' E 026°19'2012.9
2018-Jul-09 02:25N 59°51' E 025°39'613.5
2018-Jul-09 01:59N 59°50' E 025°28'713.6
2018-Jul-09 01:27N 59°48' E 025°14'613.4
2018-Jul-09 01:00N 59°47' E 025°02'713.4
2018-Jul-09 00:30N 59°45' E 024°49'813.5
2018-Jul-08 23:56N 59°44' E 024°34'1313.3
2018-Jul-08 22:56N 59°40' E 024°09'613.7
2018-Jul-08 22:31N 59°39' E 023°58'713.8
2018-Jul-08 22:01N 59°37' E 023°45'713.8
2018-Jul-08 21:31N 59°35' E 023°32'713.8
2018-Jul-08 21:01N 59°32' E 023°19'713.6
2018-Jul-08 20:30N 59°30' E 023°06'713.5
2018-Jul-08 20:00N 59°28' E 022°54'4412.8
2018-Jul-08 16:36N 59°03' E 021°44'112.2
2018-Jul-08 16:30N 59°02' E 021°43'13012.4
2018-Jul-08 05:58N 57°09' E 019°39'612.2
2018-Jul-08 05:30N 57°05' E 019°34'612.2
2018-Jul-08 04:59N 56°59' E 019°29'612.0
2018-Jul-08 04:30N 56°54' E 019°24'912.3
2018-Jul-08 03:45N 56°46' E 019°16'312.5
2018-Jul-08 03:30N 56°43' E 019°13'612.4
2018-Jul-08 02:59N 56°37' E 019°08'3712.3
2018-Jul-07 23:59N 56°10' E 018°24'1312.8
2018-Jul-07 22:59N 56°03' E 018°04'613.0
2018-Jul-07 22:30N 55°60' E 017°55'3412.5
2018-Jul-07 19:49N 55°49' E 016°57'412.6
2018-Jul-07 19:29N 55°48' E 016°50'612.6
2018-Jul-07 19:00N 55°47' E 016°40'612.5
2018-Jul-07 18:30N 55°45' E 016°29'612.7
2018-Jul-07 18:00N 55°44' E 016°18'612.8
2018-Jul-07 17:30N 55°43' E 016°07'613.0
2018-Jul-07 17:00N 55°41' E 015°56'713.2
2018-Jul-07 16:30N 55°39' E 015°45'713.5
2018-Jul-07 16:00N 55°38' E 015°33'713.5
2018-Jul-07 15:31N 55°35' E 015°22'713.3
2018-Jul-07 15:00N 55°33' E 015°11'713.2
2018-Jul-07 14:30N 55°30' E 015°00'713.2
2018-Jul-07 14:00N 55°27' E 014°50'713.1
2018-Jul-07 13:30N 55°24' E 014°40'613.0
2018-Jul-07 13:00N 55°19' E 014°32'712.8
2018-Jul-07 12:30N 55°14' E 014°25'612.4
2018-Jul-07 11:59N 55°11' E 014°16'4012.9
2018-Jul-07 08:54N 55°13' E 013°06'513.1
2018-Jul-07 08:30N 55°14' E 012°57'713.3
2018-Jul-07 07:59N 55°16' E 012°46'612.0
2018-Jul-07 07:30N 55°20' E 012°38'713.3
2018-Jul-07 07:00N 55°26' E 012°40'611.4
2018-Jul-07 06:30N 55°32' E 012°42'510.4
2018-Jul-07 06:00N 55°37' E 012°42'611.7
2018-Jul-07 05:30N 55°43' E 012°41'5 9.9
2018-Jul-07 05:01N 55°48' E 012°43'  
Track history (hours):
 
Tides and Currents Weather Stations Pressure Air Temp Water Temp Dewpoint Dewpoint Depression Visibility Wind Speed Wind Dir Waves Ship Positions

Minerva Tychi

Last reported at 2018-Jul-17 04:43 UTC. Time now 2018-Jul-20 23:52 UTC.
Position N 47°32' W 006°35'.

Length 184 m; draft 10.5 m.

Type: Tanker. MMSI: 241372000.

Date/timePositionNaut miles runAvg speedWind from/ knotsBaromVisibWave heightAir tempDewpointWater temp
2018-Jul-17 04:43N 47°32' W 006°35'512.2
2018-Jul-17 04:19N 47°37' W 006°33'16211.5
2018-Jul-16 14:12N 49°39' W 003°51'314.5
2018-Jul-16 14:00N 49°41' W 003°48'714.2
2018-Jul-16 13:29N 49°44' W 003°37'714.0
2018-Jul-16 12:59N 49°47' W 003°28'613.3
2018-Jul-16 12:31N 49°51' W 003°19'612.8
2018-Jul-16 12:00N 49°54' W 003°11'612.0
2018-Jul-16 11:30N 49°57' W 003°03'611.3
2018-Jul-16 11:00N 49°59' W 002°55'511.0
2018-Jul-16 10:31N 50°01' W 002°47'510.6
2018-Jul-16 10:01N 50°02' W 002°39'510.4
2018-Jul-16 09:31N 50°04' W 002°31'510.3
2018-Jul-16 09:01N 50°05' W 002°23'510.4
2018-Jul-16 08:29N 50°07' W 002°15'511.1
2018-Jul-16 08:00N 50°09' W 002°07'611.9
2018-Jul-16 07:30N 50°10' W 001°58'1013.2
2018-Jul-16 06:44N 50°13' W 001°43'414.2
2018-Jul-16 06:28N 50°14' W 001°37'714.9
2018-Jul-16 06:00N 50°16' W 001°27'815.7
2018-Jul-16 05:30N 50°19' W 001°15'816.6
2018-Jul-16 05:00N 50°20' W 001°03'816.9
2018-Jul-16 04:30N 50°22' W 000°50'816.0
2018-Jul-16 04:00N 50°25' W 000°38'815.5
2018-Jul-16 03:30N 50°27' W 000°26'714.8
2018-Jul-16 03:00N 50°29' W 000°15'714.2
2018-Jul-16 02:30N 50°31' W 000°04'713.5
2018-Jul-16 02:00N 50°33' E 000°06'612.9
2018-Jul-16 01:30N 50°35' E 000°16'612.4
2018-Jul-16 01:01N 50°36' E 000°25'612.0
2018-Jul-16 00:31N 50°38' E 000°34'611.4
2018-Jul-16 00:01N 50°41' E 000°42'611.4
2018-Jul-15 23:31N 50°44' E 000°49'611.7
2018-Jul-15 23:00N 50°48' E 000°56'612.6
2018-Jul-15 22:30N 50°52' E 001°04'713.4
2018-Jul-15 22:01N 50°56' E 001°12'714.8
2018-Jul-15 21:30N 51°01' E 001°21'816.0
2018-Jul-15 21:01N 51°06' E 001°31'816.1
2018-Jul-15 20:31N 51°11' E 001°41'714.8
2018-Jul-15 20:01N 51°17' E 001°48'713.9
2018-Jul-15 19:30N 51°23' E 001°53'612.4
2018-Jul-15 19:00N 51°28' E 001°58'612.5
2018-Jul-15 18:30N 51°33' E 002°05'612.1
2018-Jul-15 18:00N 51°37' E 002°11'611.9
2018-Jul-15 17:30N 51°42' E 002°18'611.6
2018-Jul-15 17:00N 51°46' E 002°24'611.3
2018-Jul-15 16:30N 51°50' E 002°30'511.0
2018-Jul-15 16:00N 51°55' E 002°35'611.1
2018-Jul-15 15:30N 52°00' E 002°37'611.1
2018-Jul-15 15:00N 52°06' E 002°38'611.4
2018-Jul-15 14:30N 52°12' E 002°38'612.1
2018-Jul-15 14:00N 52°17' E 002°42'612.8
2018-Jul-15 13:30N 52°23' E 002°47'713.4
2018-Jul-15 13:00N 52°29' E 002°52'713.9
2018-Jul-15 12:30N 52°35' E 002°58'714.1
2018-Jul-15 12:00N 52°41' E 003°03'714.2
2018-Jul-15 11:30N 52°47' E 003°09'714.3
2018-Jul-15 11:00N 52°54' E 003°14'714.2
2018-Jul-15 10:30N 53°00' E 003°18'714.3
2018-Jul-15 10:00N 53°07' E 003°22'714.2
2018-Jul-15 09:31N 53°14' E 003°26'713.8
2018-Jul-15 09:00N 53°20' E 003°29'713.3
2018-Jul-15 08:30N 53°27' E 003°32'612.9
2018-Jul-15 08:00N 53°33' E 003°36'612.6
2018-Jul-15 07:30N 53°39' E 003°39'611.9
2018-Jul-15 07:00N 53°44' E 003°43'612.3
2018-Jul-15 06:30N 53°48' E 003°51'612.3
2018-Jul-15 06:00N 53°52' E 003°60'612.4
2018-Jul-15 05:30N 53°55' E 004°08'612.7
2018-Jul-15 05:00N 53°59' E 004°17'612.6
2018-Jul-15 04:30N 54°04' E 004°23'813.1
2018-Jul-15 03:53N 54°11' E 004°30'513.3
2018-Jul-15 03:29N 54°16' E 004°35'713.3
2018-Jul-15 03:00N 54°22' E 004°40'713.4
2018-Jul-15 02:30N 54°27' E 004°45'713.2
2018-Jul-15 01:57N 54°34' E 004°51'813.2
2018-Jul-15 01:21N 54°40' E 004°59'513.0
2018-Jul-15 01:00N 54°45' E 005°02'2812.9
2018-Jul-14 22:52N 55°09' E 005°26'1112.8
2018-Jul-14 21:59N 55°19' E 005°35'712.9
2018-Jul-14 21:29N 55°24' E 005°41'712.8
2018-Jul-14 20:57N 55°30' E 005°47'14512.2
2018-Jul-14 09:04N 57°26' E 008°25'711.3
2018-Jul-14 08:27N 57°30' E 008°35'511.4
2018-Jul-14 08:00N 57°32' E 008°44'611.5
2018-Jul-14 07:28N 57°36' E 008°53'711.5
2018-Jul-14 06:54N 57°39' E 009°03'511.3
2018-Jul-14 06:29N 57°41' E 009°11'611.5
2018-Jul-14 05:59N 57°44' E 009°21'611.6
2018-Jul-14 05:30N 57°46' E 009°31'611.9
2018-Jul-14 05:00N 57°48' E 009°41'611.3
2018-Jul-14 04:30N 57°49' E 009°52'611.0
2018-Jul-14 04:00N 57°49' E 010°02'510.6
2018-Jul-14 03:30N 57°48' E 010°12'510.5
2018-Jul-14 03:00N 57°49' E 010°22'510.4
2018-Jul-14 02:30N 57°49' E 010°32'510.0
2018-Jul-14 02:00N 57°49' E 010°41'510.3
2018-Jul-14 01:30N 57°47' E 010°50'5 9.5
2018-Jul-14 01:00N 57°44' E 010°56'612.4
2018-Jul-14 00:30N 57°40' E 011°04'612.9
2018-Jul-14 00:00N 57°35' E 011°13'713.3
2018-Jul-13 23:30N 57°30' E 011°22'612.7
2018-Jul-13 23:00N 57°25' E 011°27'612.9
2018-Jul-13 22:30N 57°19' E 011°32'612.8
2018-Jul-13 22:00N 57°13' E 011°36'612.8
2018-Jul-13 21:30N 57°07' E 011°40'612.6
2018-Jul-13 21:01N 57°01' E 011°44'612.6
2018-Jul-13 20:31N 56°55' E 011°48'612.1
2018-Jul-13 20:00N 56°49' E 011°51'611.6
2018-Jul-13 19:29N 56°43' E 011°51'612.5
2018-Jul-13 19:00N 56°37' E 011°46'612.7
2018-Jul-13 18:31N 56°32' E 011°40'712.6
2018-Jul-13 17:59N 56°27' E 011°34'912.4
2018-Jul-13 17:18N 56°19' E 011°26'912.8
2018-Jul-13 16:34N 56°11' E 011°17'4612.0
2018-Jul-13 12:43N 55°26' E 010°58'312.3
2018-Jul-13 12:29N 55°24' E 011°01'612.3
2018-Jul-13 12:00N 55°18' E 011°03'612.0
2018-Jul-13 11:30N 55°12' E 011°05'612.0
2018-Jul-13 11:00N 55°07' E 010°60'713.2
2018-Jul-13 10:30N 55°00' E 010°59'713.4
2018-Jul-13 10:00N 54°55' E 010°52'713.8
2018-Jul-13 09:30N 54°48' E 010°50'713.1
2018-Jul-13 09:01N 54°42' E 010°47'612.1
2018-Jul-13 08:30N 54°38' E 010°55'612.1
2018-Jul-13 08:01N 54°36' E 011°05'612.5
2018-Jul-13 07:31N 54°34' E 011°15'713.0
2018-Jul-13 07:01N 54°32' E 011°25'612.5
2018-Jul-13 06:31N 54°29' E 011°35'612.4
2018-Jul-13 06:00N 54°27' E 011°45'612.2
2018-Jul-13 05:30N 54°25' E 011°55'612.4
2018-Jul-13 05:01N 54°26' E 012°06'611.4
2018-Jul-13 04:30N 54°30' E 012°13'612.1
2018-Jul-13 04:00N 54°36' E 012°16'4 8.2
2018-Jul-13 03:31N 54°39' E 012°21'4 7.5
2018-Jul-13 03:01N 54°41' E 012°26'510.3
2018-Jul-13 02:30N 54°44' E 012°34'612.9
2018-Jul-13 02:00N 54°48' E 012°43'712.7
2018-Jul-13 01:25N 54°50' E 012°55'512.8
2018-Jul-13 01:00N 54°52' E 013°04'613.0
2018-Jul-13 00:31N 54°54' E 013°14'913.1
2018-Jul-12 23:51N 54°57' E 013°28'512.7
2018-Jul-12 23:30N 54°59' E 013°35'1812.8
2018-Jul-12 22:05N 55°05' E 014°05'113.2
2018-Jul-12 22:00N 55°06' E 014°07'613.1
2018-Jul-12 21:31N 55°11' E 014°14'813.1
2018-Jul-12 20:53N 55°17' E 014°23'613.2
2018-Jul-12 20:27N 55°22' E 014°29'613.1
2018-Jul-12 20:00N 55°26' E 014°36'712.9
2018-Jul-12 19:30N 55°29' E 014°46'613.0
2018-Jul-12 19:01N 55°32' E 014°56'713.2
2018-Jul-12 18:30N 55°35' E 015°07'713.1
2018-Jul-12 18:00N 55°38' E 015°17'612.7
2018-Jul-12 17:31N 55°40' E 015°28'612.8
2018-Jul-12 17:01N 55°41' E 015°39'712.9
2018-Jul-12 16:30N 55°43' E 015°50'612.9
2018-Jul-12 16:01N 55°45' E 016°01'713.1
2018-Jul-12 15:31N 55°46' E 016°12'712.9
2018-Jul-12 15:00N 55°48' E 016°24'612.8
2018-Jul-12 14:31N 55°49' E 016°34'712.9
2018-Jul-12 14:00N 55°51' E 016°46'713.0
2018-Jul-12 13:30N 55°53' E 016°57'713.9
2018-Jul-12 12:58N 55°54' E 017°10'613.9
2018-Jul-12 12:31N 55°56' E 017°21'913.9
2018-Jul-12 11:53N 55°58' E 017°36'1412.9
2018-Jul-12 10:46N 56°05' E 017°58'413.1
2018-Jul-12 10:29N 56°07' E 018°04'2113.0
2018-Jul-12 08:53N 56°18' E 018°35'17813.0
2018-Jul-11 19:15N 58°53' E 021°18'313.3
2018-Jul-11 19:00N 58°56' E 021°22'613.3
2018-Jul-11 18:30N 59°01' E 021°28'713.2
2018-Jul-11 18:00N 59°07' E 021°35'612.8
2018-Jul-11 17:30N 59°12' E 021°44'813.0
2018-Jul-11 16:55N 59°16' E 021°56'813.0
2018-Jul-11 16:18N 59°21' E 022°08'1213.0
2018-Jul-11 15:24N 59°29' E 022°26'512.8
2018-Jul-11 15:00N 59°31' E 022°35'813.1
2018-Jul-11 14:23N 59°33' E 022°50'613.1
2018-Jul-11 13:58N 59°35' E 023°01'613.1
2018-Jul-11 13:30N 59°37' E 023°12'713.2
2018-Jul-11 13:01N 59°38' E 023°24'713.4
2018-Jul-11 12:30N 59°40' E 023°37'713.3
2018-Jul-11 12:00N 59°42' E 023°50'713.3
2018-Jul-11 11:30N 59°44' E 024°03'713.4
2018-Jul-11 11:00N 59°46' E 024°15'713.4
2018-Jul-11 10:30N 59°47' E 024°28'613.0
2018-Jul-11 10:00N 59°49' E 024°41'713.2
2018-Jul-11 09:30N 59°50' E 024°54'713.1
2018-Jul-11 09:00N 59°51' E 025°06'712.7
2018-Jul-11 08:25N 59°53' E 025°21'2412.8
2018-Jul-11 06:32N 59°54' E 026°09'012.9
2018-Jul-11 06:30N 59°54' E 026°10'713.7
2018-Jul-11 06:00N 59°53' E 026°23'612.2
2018-Jul-11 05:30N 59°50' E 026°33'814.2
2018-Jul-11 04:58N 59°45' E 026°45'611.9
2018-Jul-11 04:30N 59°42' E 026°54'713.9
2018-Jul-11 04:00N 59°38' E 027°06'611.8
2018-Jul-11 03:31N 59°35' E 027°15'712.6
2018-Jul-11 02:58N 59°32' E 027°27'612.9
2018-Jul-11 02:30N 59°30' E 027°38'5 8.8
2018-Jul-11 01:59N 59°26' E 027°44'1 0.0
2018-Jul-09 23:18N 59°25' E 027°44'0 0.0
2018-Jul-09 23:01N 59°25' E 027°44'0 1.0
2018-Jul-09 22:31N 59°26' E 027°44'3 5.2
2018-Jul-09 22:00N 59°28' E 027°41'2 3.0
2018-Jul-09 21:29N 59°30' E 027°42'0 0.0
2018-Jul-09 20:57N 59°30' E 027°42'0 0.0
2018-Jul-09 20:27N 59°30' E 027°42'0 0.0
2018-Jul-09 19:57N 59°30' E 027°42'0 0.0
2018-Jul-09 19:30N 59°30' E 027°42'0 0.0
2018-Jul-09 19:00N 59°30' E 027°42'0 0.0
2018-Jul-09 18:30N 59°30' E 027°42'0 0.0
2018-Jul-09 18:00N 59°30' E 027°42'0 0.0
2018-Jul-09 17:30N 59°30' E 027°42'0 0.0
2018-Jul-09 17:00N 59°30' E 027°42'0 0.0
2018-Jul-09 16:30N 59°30' E 027°42'0 0.0
2018-Jul-09 16:00N 59°30' E 027°42'0 0.0
2018-Jul-09 15:30N 59°30' E 027°42'0 0.0
2018-Jul-09 15:00N 59°30' E 027°42'0 0.0
2018-Jul-09 14:30N 59°30' E 027°42'0 0.0
2018-Jul-09 14:00N 59°30' E 027°42'0 0.0
2018-Jul-09 13:30N 59°30' E 027°42'0 0.0
2018-Jul-09 12:51N 59°30' E 027°42'0 0.0
2018-Jul-09 12:18N 59°30' E 027°42'0 0.0
2018-Jul-09 11:51N 59°30' E 027°42'0 0.0
2018-Jul-09 11:21N 59°30' E 027°42'0 0.0
2018-Jul-09 10:59N 59°30' E 027°42'0 0.0
2018-Jul-09 10:24N 59°30' E 027°42'0 0.0
2018-Jul-09 09:57N 59°30' E 027°42'0 0.0
2018-Jul-09 09:24N 59°30' E 027°42'0 0.0
2018-Jul-09 08:54N 59°30' E 027°42'0 0.1
2018-Jul-09 08:21N 59°30' E 027°42'0 0.7
2018-Jul-09 08:00N 59°30' E 027°42'4 7.7
2018-Jul-09 07:30N 59°31' E 027°35'4 9.0
2018-Jul-09 07:00N 59°32' E 027°26'5 9.6
2018-Jul-09 06:30N 59°34' E 027°17'713.7
2018-Jul-09 05:58N 59°38' E 027°05'714.7
2018-Jul-09 05:30N 59°42' E 026°54'612.9
2018-Jul-09 05:00N 59°46' E 026°44'714.9
2018-Jul-09 04:30N 59°50' E 026°31'713.0
2018-Jul-09 03:58N 59°53' E 026°19'2012.9
2018-Jul-09 02:25N 59°51' E 025°39'613.5
2018-Jul-09 01:59N 59°50' E 025°28'713.6
2018-Jul-09 01:27N 59°48' E 025°14'613.4
2018-Jul-09 01:00N 59°47' E 025°02'713.4
2018-Jul-09 00:30N 59°45' E 024°49'813.5
2018-Jul-08 23:56N 59°44' E 024°34'1313.3
2018-Jul-08 22:56N 59°40' E 024°09'613.7
2018-Jul-08 22:31N 59°39' E 023°58'713.8
2018-Jul-08 22:01N 59°37' E 023°45'713.8
2018-Jul-08 21:31N 59°35' E 023°32'713.8
2018-Jul-08 21:01N 59°32' E 023°19'713.6
2018-Jul-08 20:30N 59°30' E 023°06'713.5
2018-Jul-08 20:00N 59°28' E 022°54'4412.8
2018-Jul-08 16:36N 59°03' E 021°44'112.2
2018-Jul-08 16:30N 59°02' E 021°43'13012.4
2018-Jul-08 05:58N 57°09' E 019°39'612.2
2018-Jul-08 05:30N 57°05' E 019°34'612.2
2018-Jul-08 04:59N 56°59' E 019°29'612.0
2018-Jul-08 04:30N 56°54' E 019°24'912.3
2018-Jul-08 03:45N 56°46' E 019°16'312.5
2018-Jul-08 03:30N 56°43' E 019°13'612.4
2018-Jul-08 02:59N 56°37' E 019°08'3712.3
2018-Jul-07 23:59N 56°10' E 018°24'1312.8
2018-Jul-07 22:59N 56°03' E 018°04'613.0
2018-Jul-07 22:30N 55°60' E 017°55'3412.5
2018-Jul-07 19:49N 55°49' E 016°57'412.6
2018-Jul-07 19:29N 55°48' E 016°50'612.6
2018-Jul-07 19:00N 55°47' E 016°40'612.5
2018-Jul-07 18:30N 55°45' E 016°29'612.7
2018-Jul-07 18:00N 55°44' E 016°18'612.8
2018-Jul-07 17:30N 55°43' E 016°07'613.0
2018-Jul-07 17:00N 55°41' E 015°56'713.2
2018-Jul-07 16:30N 55°39' E 015°45'713.5
2018-Jul-07 16:00N 55°38' E 015°33'713.5
2018-Jul-07 15:31N 55°35' E 015°22'713.3
2018-Jul-07 15:00N 55°33' E 015°11'713.2
2018-Jul-07 14:30N 55°30' E 015°00'713.2
2018-Jul-07 14:00N 55°27' E 014°50'713.1
2018-Jul-07 13:30N 55°24' E 014°40'613.0
2018-Jul-07 13:00N 55°19' E 014°32'712.8
2018-Jul-07 12:30N 55°14' E 014°25'612.4
2018-Jul-07 11:59N 55°11' E 014°16'4012.9
2018-Jul-07 08:54N 55°13' E 013°06'513.1
2018-Jul-07 08:30N 55°14' E 012°57'713.3
2018-Jul-07 07:59N 55°16' E 012°46'612.0
2018-Jul-07 07:30N 55°20' E 012°38'713.3
2018-Jul-07 07:00N 55°26' E 012°40'611.4
2018-Jul-07 06:30N 55°32' E 012°42'510.4
2018-Jul-07 06:00N 55°37' E 012°42'611.7
2018-Jul-07 05:30N 55°43' E 012°41'5 9.9
2018-Jul-07 05:01N 55°48' E 012°43'  

Dump ship's entire track history